Time;durP1;ratioP1;P1;durP2;ratioP2;P2;SDS_P1;SDS_P2;PMS_P1;PMS_P2;Temp;Humidity;BMP_temperature;BMP_pressure;BME280_temperature;BME280_humidity;BME280_pressure;Samples;Min_cycle;Max_cycle;Signal;HPM_P1;HPM_P2
2022/11/26 00:00:32;;;;;;;25.63;14.20;;;;;;;;;;5097780;28;20133;-75
2022/11/26 00:03:17;;;;;;;21.40;12.85;;;;;;;;;;5097821;28;20027;-76
2022/11/26 00:06:03;;;;;;;21.88;13.68;;;;;;;;;;5097319;28;20394;-74
2022/11/26 00:08:49;;;;;;;24.10;14.57;;;;;;;;;;5098032;28;20352;-75
2022/11/26 00:11:34;;;;;;;23.95;14.15;;;;;;;;;;5081140;28;20440;-76
2022/11/26 00:14:20;;;;;;;24.50;14.10;;;;;;;;;;5082219;28;20132;-75
2022/11/26 00:17:05;;;;;;;22.90;14.00;;;;;;;;;;5080501;28;20015;-76
2022/11/26 00:19:51;;;;;;;25.45;14.70;;;;;;;;;;5095960;28;20039;-76
2022/11/26 00:22:41;;;;;;;22.02;12.90;;;;;;;;;;5081767;28;20441;-78
2022/11/26 00:25:47;;;;;;;24.73;14.45;;;;;;;;;;5096851;28;20023;-79
2022/11/26 00:28:34;;;;;;;23.38;14.18;;;;;;;;;;5096385;28;20044;-75
2022/11/26 00:31:20;;;;;;;23.60;13.95;;;;;;;;;;5096051;28;20375;-75
2022/11/26 00:34:06;;;;;;;25.83;15.20;;;;;;;;;;5096312;28;20043;-75
2022/11/26 00:36:51;;;;;;;24.70;14.32;;;;;;;;;;5106316;27;20467;-75
2022/11/26 00:39:37;;;;;;;25.48;15.05;;;;;;;;;;5116036;28;20107;-76
2022/11/26 00:42:22;;;;;;;25.25;14.68;;;;;;;;;;5116772;28;20019;-76
2022/11/26 00:45:19;;;;;;;23.35;14.52;;;;;;;;;;5115843;28;20020;-75
2022/11/26 00:48:05;;;;;;;25.20;14.43;;;;;;;;;;5115870;28;20416;-74
2022/11/26 00:50:50;;;;;;;21.75;13.50;;;;;;;;;;5116177;28;20039;-75
2022/11/26 00:53:36;;;;;;;24.88;14.52;;;;;;;;;;5115812;28;20019;-76
2022/11/26 00:56:22;;;;;;;27.50;14.90;;;;;;;;;;5115242;28;20098;-75
2022/11/26 00:59:11;;;;;;;24.98;14.10;;;;;;;;;;5116876;28;20015;-76
2022/11/26 01:01:56;;;;;;;22.85;13.95;;;;;;;;;;5116189;28;20347;-76
2022/11/26 01:04:42;;;;;;;22.00;13.43;;;;;;;;;;5115620;28;20051;-76
2022/11/26 01:07:28;;;;;;;25.55;14.55;;;;;;;;;;5115507;28;20028;-76
2022/11/26 01:10:24;;;;;;;23.67;14.52;;;;;;;;;;5100026;28;20031;-75
2022/11/26 01:13:10;;;;;;;24.13;13.98;;;;;;;;;;5115701;28;20112;-75
2022/11/26 01:15:56;;;;;;;25.63;14.80;;;;;;;;;;5116154;28;20350;-76
2022/11/26 01:18:42;;;;;;;24.60;13.82;;;;;;;;;;5100672;28;20444;-74
2022/11/26 01:21:29;;;;;;;22.27;13.65;;;;;;;;;;5114490;28;20027;-76
2022/11/26 01:24:14;;;;;;;26.77;14.75;;;;;;;;;;5115867;28;20019;-76
2022/11/26 01:27:00;;;;;;;26.40;15.20;;;;;;;;;;5102060;28;20020;-77
2022/11/26 01:29:46;;;;;;;23.23;14.27;;;;;;;;;;5100622;28;20437;-76
2022/11/26 01:32:31;;;;;;;24.30;13.75;;;;;;;;;;5115438;28;20447;-76
2022/11/26 01:35:18;;;;;;;25.77;14.70;;;;;;;;;;5101194;28;20310;-77
2022/11/26 01:38:03;;;;;;;29.23;15.63;;;;;;;;;;5114830;28;20042;-75
2022/11/26 01:40:59;;;;;;;28.67;15.88;;;;;;;;;;5113729;28;20077;-77
2022/11/26 01:43:45;;;;;;;26.48;15.75;;;;;;;;;;5115613;28;20372;-77
2022/11/26 01:46:39;;;;;;;29.63;16.92;;;;;;;;;;5101456;28;20015;-76
2022/11/26 01:49:27;;;;;;;27.23;16.48;;;;;;;;;;5115424;28;20035;-75
2022/11/26 01:52:20;;;;;;;40.53;23.70;;;;;;;;;;5101329;28;20040;-75
2022/11/26 01:55:08;;;;;;;45.08;26.55;;;;;;;;;;5115418;28;20348;-76
2022/11/26 01:57:54;;;;;;;44.20;27.25;;;;;;;;;;5114499;28;20081;-76
2022/11/26 02:00:39;;;;;;;49.28;30.55;;;;;;;;;;5114484;28;20028;-76
2022/11/26 02:03:26;;;;;;;49.13;28.45;;;;;;;;;;5114307;28;20163;-75
2022/11/26 02:06:14;;;;;;;44.60;27.75;;;;;;;;;;5099704;28;20019;-75
2022/11/26 02:09:01;;;;;;;34.65;20.23;;;;;;;;;;5115052;28;20015;-76
2022/11/26 02:11:47;;;;;;;32.50;19.42;;;;;;;;;;5099542;28;20164;-76
2022/11/26 02:14:35;;;;;;;26.55;16.42;;;;;;;;;;5101086;28;20047;-76
2022/11/26 02:17:30;;;;;;;30.73;18.67;;;;;;;;;;5099764;28;20073;-76
2022/11/26 02:20:19;;;;;;;28.48;17.58;;;;;;;;;;5105123;28;20355;-74
2022/11/26 02:23:17;;;;;;;26.50;16.30;;;;;;;;;;5106922;28;20058;-76
2022/11/26 02:26:21;;;;;;;24.33;14.57;;;;;;;;;;5118990;28;20027;-76
2022/11/26 02:29:16;;;;;;;25.63;15.25;;;;;;;;;;5118736;28;20012;-75
2022/11/26 02:32:07;;;;;;;26.65;16.17;;;;;;;;;;5118730;28;20015;-76
2022/11/26 02:35:02;;;;;;;29.23;16.63;;;;;;;;;;5119228;28;20023;-76
2022/11/26 02:37:54;;;;;;;33.90;18.80;;;;;;;;;;5103866;28;20040;-76
2022/11/26 02:40:40;;;;;;;36.05;19.88;;;;;;;;;;5103368;28;20019;-76
2022/11/26 02:43:26;;;;;;;40.55;21.23;;;;;;;;;;5117448;28;20062;-76
2022/11/26 02:46:14;;;;;;;40.60;21.88;;;;;;;;;;5118133;28;20034;-77
2022/11/26 02:49:01;;;;;;;39.30;21.77;;;;;;;;;;5105438;28;20081;-76
2022/11/26 02:51:48;;;;;;;43.85;21.92;;;;;;;;;;5118273;28;20377;-76
2022/11/26 02:54:35;;;;;;;41.58;22.27;;;;;;;;;;5118522;28;20031;-77
2022/11/26 02:57:23;;;;;;;41.28;21.48;;;;;;;;;;5118358;28;20051;-77
2022/11/26 03:00:09;;;;;;;38.75;21.13;;;;;;;;;;5117842;28;20019;-76
2022/11/26 03:03:00;;;;;;;42.50;23.00;;;;;;;;;;5118619;28;20444;-76
2022/11/26 03:05:47;;;;;;;40.58;21.80;;;;;;;;;;5104373;28;20439;-75
2022/11/26 03:08:32;;;;;;;45.90;22.65;;;;;;;;;;5117545;28;20034;-75
2022/11/26 03:11:18;;;;;;;45.92;24.02;;;;;;;;;;5104297;28;20028;-76
2022/11/26 03:14:04;;;;;;;42.53;23.48;;;;;;;;;;5104145;28;20356;-76
2022/11/26 03:16:49;;;;;;;45.50;23.77;;;;;;;;;;5103532;28;20354;-77
2022/11/26 03:19:35;;;;;;;42.00;23.05;;;;;;;;;;5117633;28;20042;-77
2022/11/26 03:22:20;;;;;;;45.22;24.33;;;;;;;;;;5117006;28;20116;-75
2022/11/26 03:25:06;;;;;;;43.35;22.33;;;;;;;;;;5117550;28;20088;-77
2022/11/26 03:27:52;;;;;;;42.65;22.67;;;;;;;;;;5103949;28;20016;-76
2022/11/26 03:30:37;;;;;;;40.42;23.08;;;;;;;;;;5103534;28;20045;-78
2022/11/26 03:33:23;;;;;;;46.42;24.85;;;;;;;;;;5103071;28;20027;-76
2022/11/26 03:36:09;;;;;;;44.63;23.45;;;;;;;;;;5103177;28;20104;-75
2022/11/26 03:38:54;;;;;;;44.60;22.92;;;;;;;;;;5103506;28;20090;-77
2022/11/26 03:41:43;;;;;;;46.80;26.25;;;;;;;;;;5116435;28;20541;-76
2022/11/26 03:44:28;;;;;;;44.00;23.30;;;;;;;;;;5101960;28;20031;-77
2022/11/26 03:47:15;;;;;;;46.10;22.90;;;;;;;;;;5117061;28;20380;-76
2022/11/26 03:50:00;;;;;;;40.08;21.90;;;;;;;;;;5117348;28;20027;-76
2022/11/26 03:52:46;;;;;;;45.35;23.92;;;;;;;;;;5118067;28;20448;-75
2022/11/26 03:55:31;;;;;;;43.75;23.10;;;;;;;;;;5117210;28;20023;-77
2022/11/26 03:58:17;;;;;;;44.53;23.35;;;;;;;;;;5117331;28;20016;-76
2022/11/26 04:01:07;;;;;;;49.92;25.50;;;;;;;;;;5102370;28;20015;-77
2022/11/26 04:03:53;;;;;;;48.80;24.83;;;;;;;;;;5117055;28;20027;-75
2022/11/26 04:06:38;;;;;;;59.35;27.38;;;;;;;;;;5117192;28;20038;-76
2022/11/26 04:09:24;;;;;;;56.63;27.65;;;;;;;;;;5117710;28;20455;-76
2022/11/26 04:12:10;;;;;;;51.40;27.05;;;;;;;;;;5117471;28;20354;-75
2022/11/26 04:14:55;;;;;;;57.72;28.25;;;;;;;;;;5118994;28;20565;-75
2022/11/26 04:17:41;;;;;;;59.80;27.83;;;;;;;;;;5117927;28;20031;-77
2022/11/26 04:20:26;;;;;;;56.03;27.25;;;;;;;;;;5118532;28;20020;-75
2022/11/26 04:23:12;;;;;;;60.60;29.08;;;;;;;;;;5117126;28;20020;-75
2022/11/26 04:25:58;;;;;;;55.30;27.92;;;;;;;;;;5117053;28;20508;-76
2022/11/26 04:28:43;;;;;;;54.78;27.20;;;;;;;;;;5115935;28;20076;-76
2022/11/26 04:31:29;;;;;;;55.42;27.05;;;;;;;;;;5117284;28;20340;-76
2022/11/26 04:34:15;;;;;;;60.17;29.30;;;;;;;;;;5103045;28;20092;-76
2022/11/26 04:37:00;;;;;;;61.08;28.25;;;;;;;;;;5115630;28;20112;-76
2022/11/26 04:39:46;;;;;;;56.95;27.67;;;;;;;;;;5116253;28;20065;-76
2022/11/26 04:42:32;;;;;;;59.40;28.23;;;;;;;;;;5116337;28;20015;-76
2022/11/26 04:45:17;;;;;;;59.42;28.00;;;;;;;;;;5115211;28;20016;-74
2022/11/26 04:48:03;;;;;;;51.97;26.85;;;;;;;;;;5115346;28;20026;-76
2022/11/26 04:50:49;;;;;;;64.97;30.63;;;;;;;;;;5115964;28;20035;-76
2022/11/26 04:53:34;;;;;;;55.75;27.45;;;;;;;;;;5116643;28;20157;-76
2022/11/26 04:56:20;;;;;;;54.83;27.15;;;;;;;;;;5101492;28;20088;-76
2022/11/26 04:59:06;;;;;;;59.47;28.27;;;;;;;;;;5115459;28;20031;-76
2022/11/26 05:01:51;;;;;;;60.67;27.85;;;;;;;;;;5116663;28;20034;-76
2022/11/26 05:04:37;;;;;;;56.20;28.10;;;;;;;;;;5116112;28;20020;-75
2022/11/26 05:07:22;;;;;;;58.70;28.02;;;;;;;;;;5102454;28;20110;-74
2022/11/26 05:10:09;;;;;;;58.67;27.50;;;;;;;;;;5101568;28;20095;-74
2022/11/26 05:12:54;;;;;;;52.85;26.50;;;;;;;;;;5116308;28;20015;-75
2022/11/26 05:15:40;;;;;;;55.33;26.08;;;;;;;;;;5115407;28;20099;-75
2022/11/26 05:18:25;;;;;;;56.72;27.58;;;;;;;;;;5114824;28;20051;-75
2022/11/26 05:21:11;;;;;;;54.35;25.88;;;;;;;;;;5115355;28;20019;-76
2022/11/26 05:23:57;;;;;;;58.08;26.83;;;;;;;;;;5115991;28;20024;-73
2022/11/26 05:26:42;;;;;;;55.65;26.33;;;;;;;;;;5118795;28;20080;-74
2022/11/26 05:29:28;;;;;;;59.33;27.30;;;;;;;;;;5117218;28;20027;-75
2022/11/26 05:32:14;;;;;;;55.42;26.73;;;;;;;;;;5102229;28;20072;-75
2022/11/26 05:34:59;;;;;;;58.42;28.15;;;;;;;;;;5100364;28;20062;-75
2022/11/26 05:37:45;;;;;;;51.75;25.98;;;;;;;;;;5115413;28;20044;-75
2022/11/26 05:40:31;;;;;;;57.83;27.17;;;;;;;;;;5115052;28;20062;-75
2022/11/26 05:43:17;;;;;;;55.95;26.33;;;;;;;;;;5115224;28;20440;-75
2022/11/26 05:46:04;;;;;;;56.28;27.70;;;;;;;;;;5115855;28;20443;-76
2022/11/26 05:48:49;;;;;;;58.67;27.08;;;;;;;;;;5101822;28;20024;-75
2022/11/26 05:51:35;;;;;;;54.22;26.58;;;;;;;;;;5114394;28;20035;-74
2022/11/26 05:54:20;;;;;;;57.65;27.13;;;;;;;;;;5114727;28;20015;-75
2022/11/26 05:57:06;;;;;;;56.90;28.02;;;;;;;;;;5114864;28;20433;-75
2022/11/26 05:59:52;;;;;;;57.25;27.23;;;;;;;;;;5114696;28;20417;-75
2022/11/26 06:02:38;;;;;;;48.20;23.98;;;;;;;;;;5114331;28;20016;-75
2022/11/26 06:05:23;;;;;;;58.45;27.27;;;;;;;;;;5115251;28;20409;-75
2022/11/26 06:08:09;;;;;;;48.72;24.67;;;;;;;;;;5114112;28;20026;-75
2022/11/26 06:10:54;;;;;;;49.28;25.23;;;;;;;;;;5099792;28;20027;-75
2022/11/26 06:13:40;;;;;;;48.53;24.38;;;;;;;;;;5114705;28;20015;-76
2022/11/26 06:16:26;;;;;;;48.25;24.60;;;;;;;;;;5113790;28;20026;-74
2022/11/26 06:19:11;;;;;;;59.10;25.88;;;;;;;;;;5114406;28;20069;-75
2022/11/26 06:21:57;;;;;;;55.50;26.23;;;;;;;;;;5113748;28;20051;-76
2022/11/26 06:24:42;;;;;;;50.78;25.75;;;;;;;;;;5094283;28;20092;-75
2022/11/26 06:27:28;;;;;;;49.80;23.05;;;;;;;;;;5100034;28;20020;-75
2022/11/26 06:30:14;;;;;;;40.70;23.02;;;;;;;;;;5099320;28;20043;-77
2022/11/26 06:32:59;;;;;;;44.92;23.45;;;;;;;;;;5113802;28;20106;-76
2022/11/26 06:35:45;;;;;;;48.13;24.70;;;;;;;;;;5114629;28;20019;-76
2022/11/26 06:38:30;;;;;;;40.95;21.80;;;;;;;;;;5099855;28;20101;-75
2022/11/26 06:41:16;;;;;;;45.88;24.27;;;;;;;;;;5085616;28;20047;-76
2022/11/26 06:44:02;;;;;;;47.60;24.90;;;;;;;;;;5114035;28;20167;-75
2022/11/26 06:46:48;;;;;;;44.63;23.08;;;;;;;;;;5114606;28;20026;-76
2022/11/26 06:49:33;;;;;;;43.83;23.10;;;;;;;;;;5092385;28;20352;-75
2022/11/26 06:52:19;;;;;;;40.58;22.15;;;;;;;;;;5114945;28;20088;-76
2022/11/26 06:55:05;;;;;;;44.90;23.08;;;;;;;;;;5114129;28;20016;-76
2022/11/26 06:57:50;;;;;;;42.28;22.88;;;;;;;;;;5115182;28;20121;-75
2022/11/26 07:00:36;;;;;;;41.50;21.80;;;;;;;;;;5099802;28;20027;-76
2022/11/26 07:03:22;;;;;;;37.72;21.40;;;;;;;;;;5113572;28;20404;-76
2022/11/26 07:06:15;;;;;;;38.20;21.25;;;;;;;;;;5114005;28;20028;-76
2022/11/26 07:09:03;;;;;;;41.53;22.10;;;;;;;;;;5117287;28;20046;-76
2022/11/26 07:11:49;;;;;;;47.17;22.75;;;;;;;;;;5118280;28;20450;-75
2022/11/26 07:14:34;;;;;;;37.50;20.88;;;;;;;;;;5118472;28;20038;-76
2022/11/26 07:17:20;;;;;;;62.50;24.30;;;;;;;;;;5117280;28;20012;-76
2022/11/26 07:20:05;;;;;;;41.75;22.70;;;;;;;;;;5117332;28;20023;-76
2022/11/26 07:22:52;;;;;;;39.40;20.80;;;;;;;;;;5103060;28;20047;-76
2022/11/26 07:25:37;;;;;;;43.50;22.80;;;;;;;;;;5102916;28;20012;-75
2022/11/26 07:28:23;;;;;;;46.97;22.85;;;;;;;;;;5117307;28;20038;-77
2022/11/26 07:31:10;;;;;;;46.17;23.45;;;;;;;;;;5117433;28;20034;-76
2022/11/26 07:33:56;;;;;;;40.45;21.65;;;;;;;;;;5102654;28;20428;-76
2022/11/26 07:36:42;;;;;;;47.50;23.27;;;;;;;;;;5117624;28;20442;-76
2022/11/26 07:39:28;;;;;;;37.78;20.35;;;;;;;;;;5117380;28;20034;-75
2022/11/26 07:42:13;;;;;;;42.53;20.42;;;;;;;;;;5116857;28;20020;-76
2022/11/26 07:44:59;;;;;;;42.40;18.77;;;;;;;;;;5117687;28;20084;-76
2022/11/26 07:47:45;;;;;;;42.63;20.45;;;;;;;;;;5117482;28;20031;-76
2022/11/26 07:50:30;;;;;;;38.03;20.08;;;;;;;;;;5116553;28;20020;-76
2022/11/26 07:53:16;;;;;;;37.67;19.98;;;;;;;;;;5116307;28;20020;-76
2022/11/26 07:56:05;;;;;;;36.20;19.20;;;;;;;;;;5117474;28;20019;-75
2022/11/26 07:58:50;;;;;;;36.90;20.23;;;;;;;;;;5117127;28;20016;-77
2022/11/26 08:01:36;;;;;;;32.45;18.63;;;;;;;;;;5116123;28;20024;-76
2022/11/26 08:04:22;;;;;;;37.85;20.23;;;;;;;;;;5115413;28;20098;-75
2022/11/26 08:07:07;;;;;;;37.15;20.00;;;;;;;;;;5115903;28;20028;-76
2022/11/26 08:09:53;;;;;;;36.70;20.08;;;;;;;;;;5117729;27;20020;-76
2022/11/26 08:12:39;;;;;;;39.50;20.92;;;;;;;;;;5102184;28;20095;-76
2022/11/26 08:15:24;;;;;;;38.47;21.05;;;;;;;;;;5116881;28;20028;-75
2022/11/26 08:18:10;;;;;;;35.03;20.17;;;;;;;;;;5116420;28;20019;-76
2022/11/26 08:20:56;;;;;;;43.80;21.60;;;;;;;;;;5101761;28;20321;-76
2022/11/26 08:23:42;;;;;;;39.20;21.35;;;;;;;;;;5110734;28;20089;-76
2022/11/26 08:26:28;;;;;;;37.88;20.58;;;;;;;;;;5117555;28;20114;-75
2022/11/26 08:29:14;;;;;;;40.47;21.77;;;;;;;;;;5116507;28;20026;-76
2022/11/26 08:31:59;;;;;;;46.33;21.45;;;;;;;;;;5120138;28;20061;-76
2022/11/26 08:34:45;;;;;;;40.42;21.13;;;;;;;;;;5121734;28;20016;-76
2022/11/26 08:37:30;;;;;;;38.38;20.55;;;;;;;;;;5115391;28;20128;-75
2022/11/26 08:40:16;;;;;;;39.97;20.80;;;;;;;;;;5102421;28;20019;-75
2022/11/26 08:43:02;;;;;;;38.05;20.77;;;;;;;;;;5116112;28;20027;-76
2022/11/26 08:45:51;;;;;;;41.75;21.38;;;;;;;;;;5116367;28;20043;-74
2022/11/26 08:48:38;;;;;;;42.15;22.13;;;;;;;;;;5115699;28;20419;-76
2022/11/26 08:51:24;;;;;;;41.10;21.55;;;;;;;;;;5114774;28;20023;-76
2022/11/26 08:54:09;;;;;;;40.25;20.77;;;;;;;;;;5115901;28;20016;-76
2022/11/26 08:56:55;;;;;;;38.88;21.95;;;;;;;;;;5115681;28;20045;-76
2022/11/26 08:59:41;;;;;;;43.90;23.25;;;;;;;;;;5115504;28;20016;-76
2022/11/26 09:02:26;;;;;;;40.85;21.77;;;;;;;;;;5114672;28;20024;-75
2022/11/26 09:05:12;;;;;;;46.70;23.02;;;;;;;;;;5114430;28;20019;-76
2022/11/26 09:07:57;;;;;;;43.22;22.70;;;;;;;;;;5101611;28;20055;-76
2022/11/26 09:10:51;;;;;;;42.45;22.92;;;;;;;;;;5114799;28;20089;-76
2022/11/26 09:13:37;;;;;;;44.67;23.50;;;;;;;;;;5116702;28;20026;-76
2022/11/26 09:16:23;;;;;;;50.20;24.95;;;;;;;;;;5092077;28;20020;-76
2022/11/26 09:19:09;;;;;;;45.42;23.65;;;;;;;;;;5115210;28;20019;-76
2022/11/26 09:21:55;;;;;;;46.45;24.45;;;;;;;;;;5115304;28;20360;-76
2022/11/26 09:24:40;;;;;;;44.40;22.83;;;;;;;;;;5101350;28;20076;-76
2022/11/26 09:27:26;;;;;;;51.67;25.00;;;;;;;;;;5115239;28;20507;-76
2022/11/26 09:30:12;;;;;;;44.85;24.35;;;;;;;;;;5100446;28;20024;-76
2022/11/26 09:32:58;;;;;;;47.95;24.98;;;;;;;;;;5115050;28;20080;-76
2022/11/26 09:35:43;;;;;;;48.67;25.67;;;;;;;;;;5115405;28;20324;-76
2022/11/26 09:38:29;;;;;;;54.75;27.10;;;;;;;;;;5100905;28;20104;-75
2022/11/26 09:41:33;;;;;;;49.92;25.45;;;;;;;;;;5115131;28;20024;-75
2022/11/26 09:44:21;;;;;;;57.45;28.20;;;;;;;;;;5115015;28;20083;-76
2022/11/26 09:47:10;;;;;;;53.13;27.25;;;;;;;;;;5101514;28;20029;-76
2022/11/26 09:50:02;;;;;;;54.33;27.13;;;;;;;;;;5114169;28;20019;-76
2022/11/26 09:52:52;;;;;;;47.45;24.95;;;;;;;;;;5115024;28;20035;-75
2022/11/26 09:55:40;;;;;;;47.47;25.80;;;;;;;;;;5115118;28;20016;-76
2022/11/26 09:58:33;;;;;;;49.50;27.05;;;;;;;;;;5114430;28;20035;-77
2022/11/26 10:01:20;;;;;;;51.33;25.60;;;;;;;;;;5100798;28;20062;-76
2022/11/26 10:04:07;;;;;;;48.25;26.33;;;;;;;;;;5099354;28;20428;-76
2022/11/26 10:06:56;;;;;;;49.42;26.05;;;;;;;;;;5115299;28;20470;-78
2022/11/26 10:09:53;;;;;;;48.97;25.17;;;;;;;;;;5109319;28;20118;-76
2022/11/26 10:12:45;;;;;;;48.33;25.17;;;;;;;;;;5114710;28;20459;-77
2022/11/26 10:15:39;;;;;;;47.30;25.23;;;;;;;;;;5114254;28;20016;-76
2022/11/26 10:18:28;;;;;;;48.58;25.85;;;;;;;;;;5114567;28;20011;-76
2022/11/26 10:21:13;;;;;;;45.85;25.02;;;;;;;;;;5114572;28;20012;-77
2022/11/26 10:24:01;;;;;;;45.03;24.40;;;;;;;;;;5114714;28;20039;-77
2022/11/26 10:26:47;;;;;;;45.05;24.83;;;;;;;;;;5100894;28;20467;-77
2022/11/26 10:29:36;;;;;;;51.47;25.25;;;;;;;;;;5101065;28;20030;-79
2022/11/26 10:32:24;;;;;;;43.97;24.20;;;;;;;;;;5100332;28;20028;-76
2022/11/26 10:35:18;;;;;;;44.63;23.80;;;;;;;;;;5099598;28;20030;-77
2022/11/26 10:38:04;;;;;;;50.88;26.00;;;;;;;;;;5114018;28;20036;-77
2022/11/26 10:40:50;;;;;;;50.47;25.42;;;;;;;;;;5114739;28;20403;-78
2022/11/26 10:43:35;;;;;;;47.65;23.58;;;;;;;;;;5116362;28;20028;-76
2022/11/26 10:46:32;;;;;;;47.85;23.77;;;;;;;;;;5118063;28;20027;-77
2022/11/26 10:49:22;;;;;;;48.38;24.67;;;;;;;;;;5118762;28;20028;-77
2022/11/26 10:52:08;;;;;;;42.17;23.27;;;;;;;;;;5118287;28;20062;-76
2022/11/26 10:55:06;;;;;;;48.00;24.63;;;;;;;;;;5104073;28;20011;-76
2022/11/26 10:57:54;;;;;;;46.22;24.38;;;;;;;;;;5104139;28;20474;-76
2022/11/26 11:00:42;;;;;;;44.30;22.90;;;;;;;;;;5117658;28;20020;-77
2022/11/26 11:03:33;;;;;;;41.97;22.73;;;;;;;;;;5120079;28;20027;-76
2022/11/26 11:06:19;;;;;;;42.53;23.42;;;;;;;;;;5105064;28;20020;-77
2022/11/26 11:09:24;;;;;;;44.83;23.13;;;;;;;;;;5119547;28;20015;-76
2022/11/26 11:12:10;;;;;;;52.60;26.00;;;;;;;;;;5105558;28;20026;-77
2022/11/26 11:15:09;;;;;;;46.72;24.65;;;;;;;;;;5118196;28;20448;-77
2022/11/26 11:17:56;;;;;;;47.22;24.35;;;;;;;;;;5118602;28;20110;-77
2022/11/26 11:20:49;;;;;;;48.22;24.13;;;;;;;;;;5119177;28;20083;-77
2022/11/26 11:23:36;;;;;;;48.13;24.83;;;;;;;;;;5120817;28;20027;-77
2022/11/26 11:26:23;;;;;;;45.08;23.42;;;;;;;;;;5120588;28;20016;-76
2022/11/26 11:29:27;;;;;;;44.50;23.02;;;;;;;;;;5132092;28;20083;-76
2022/11/26 11:32:32;;;;;;;44.88;22.85;;;;;;;;;;5127949;28;20019;-76
2022/11/26 11:35:17;;;;;;;44.33;22.60;;;;;;;;;;5110487;28;20020;-76
2022/11/26 11:38:03;;;;;;;45.92;24.30;;;;;;;;;;5125422;28;20078;-75
2022/11/26 11:40:49;;;;;;;45.30;24.25;;;;;;;;;;5117866;28;20011;-75
2022/11/26 11:43:36;;;;;;;43.92;22.77;;;;;;;;;;5109676;28;20103;-75
2022/11/26 11:46:32;;;;;;;44.22;24.20;;;;;;;;;;5132516;28;20042;-75
2022/11/26 11:49:21;;;;;;;41.70;21.73;;;;;;;;;;5139416;28;20019;-76
2022/11/26 11:52:12;;;;;;;45.30;23.27;;;;;;;;;;5138842;28;20077;-75
2022/11/26 11:54:58;;;;;;;46.90;22.85;;;;;;;;;;5137967;28;20024;-75
2022/11/26 11:57:47;;;;;;;43.15;23.10;;;;;;;;;;5133933;28;20043;-75
2022/11/26 12:00:35;;;;;;;46.92;23.63;;;;;;;;;;5138420;28;20019;-75
2022/11/26 12:03:27;;;;;;;44.00;22.35;;;;;;;;;;5136909;28;20102;-76
2022/11/26 12:06:31;;;;;;;57.88;27.90;;;;;;;;;;5121421;28;20084;-76
2022/11/26 12:09:32;;;;;;;46.08;23.90;;;;;;;;;;5137516;28;20053;-76
2022/11/26 12:12:27;;;;;;;42.88;22.80;;;;;;;;;;5136734;28;20096;-76
2022/11/26 12:15:12;;;;;;;44.38;23.58;;;;;;;;;;5127978;28;20016;-78
2022/11/26 12:18:10;;;;;;;45.20;22.70;;;;;;;;;;5128829;28;20024;-77
2022/11/26 12:21:00;;;;;;;45.88;24.63;;;;;;;;;;5126500;28;20023;-76
2022/11/26 12:23:45;;;;;;;46.60;24.48;;;;;;;;;;5103959;28;20553;-77
2022/11/26 12:26:41;;;;;;;44.65;23.58;;;;;;;;;;5117893;28;20019;-76
2022/11/26 12:29:35;;;;;;;42.35;23.30;;;;;;;;;;5104250;28;20047;-76
2022/11/26 12:32:27;;;;;;;48.92;25.02;;;;;;;;;;5132610;28;20039;-76
2022/11/26 12:35:14;;;;;;;51.13;26.15;;;;;;;;;;5125432;28;20093;-76
2022/11/26 12:38:05;;;;;;;46.38;24.17;;;;;;;;;;5117688;28;20048;-76
2022/11/26 12:40:59;;;;;;;46.97;23.65;;;;;;;;;;5138233;28;20019;-76
2022/11/26 12:44:01;;;;;;;45.83;23.27;;;;;;;;;;5136788;28;20052;-75
2022/11/26 12:47:05;;;;;;;47.53;25.48;;;;;;;;;;5130584;28;20459;-76
2022/11/26 12:50:09;;;;;;;47.75;25.70;;;;;;;;;;5116792;28;20042;-77
2022/11/26 12:53:13;;;;;;;45.58;23.33;;;;;;;;;;5116673;28;20023;-76
2022/11/26 12:56:03;;;;;;;51.47;25.77;;;;;;;;;;5102313;28;20015;-77
2022/11/26 12:58:49;;;;;;;49.58;25.40;;;;;;;;;;5116544;28;20020;-76
2022/11/26 13:01:34;;;;;;;49.58;25.75;;;;;;;;;;5116606;28;20039;-76
2022/11/26 13:04:20;;;;;;;51.30;26.38;;;;;;;;;;5115416;28;20050;-77
2022/11/26 13:07:06;;;;;;;55.38;27.90;;;;;;;;;;5115637;28;20424;-76
2022/11/26 13:09:51;;;;;;;59.38;29.40;;;;;;;;;;5115309;28;20034;-77
2022/11/26 13:12:37;;;;;;;52.10;27.85;;;;;;;;;;5116387;28;20433;-76
2022/11/26 13:15:26;;;;;;;54.80;27.25;;;;;;;;;;5116122;28;20073;-77
2022/11/26 13:18:15;;;;;;;57.92;28.60;;;;;;;;;;5101141;28;20043;-76
2022/11/26 13:21:01;;;;;;;59.45;28.15;;;;;;;;;;5114981;28;20075;-76
2022/11/26 13:24:02;;;;;;;56.78;27.70;;;;;;;;;;5115199;28;20023;-76
2022/11/26 13:26:58;;;;;;;58.67;29.25;;;;;;;;;;5115654;28;20380;-75
2022/11/26 13:29:46;;;;;;;58.80;28.05;;;;;;;;;;5100409;28;20062;-77
2022/11/26 13:32:45;;;;;;;56.17;28.45;;;;;;;;;;5100717;28;20444;-75
2022/11/26 13:35:50;;;;;;;59.72;29.08;;;;;;;;;;5115456;28;20020;-76
2022/11/26 13:38:41;;;;;;;58.97;27.73;;;;;;;;;;5101204;28;20047;-77
2022/11/26 13:41:39;;;;;;;54.95;27.95;;;;;;;;;;5115441;28;20073;-76
2022/11/26 13:44:39;;;;;;;57.00;28.63;;;;;;;;;;5101287;28;20024;-76
2022/11/26 13:47:43;;;;;;;56.15;27.88;;;;;;;;;;5093302;28;20081;-77
2022/11/26 13:50:49;;;;;;;55.10;27.60;;;;;;;;;;5100954;28;20015;-77
2022/11/26 13:53:37;;;;;;;61.17;28.98;;;;;;;;;;5115775;28;20047;-77
2022/11/26 13:56:24;;;;;;;59.85;28.10;;;;;;;;;;5115638;28;20583;-76
2022/11/26 13:59:17;;;;;;;66.50;30.25;;;;;;;;;;5115244;28;20088;-77
2022/11/26 14:02:23;;;;;;;58.72;29.25;;;;;;;;;;5114019;28;20028;-76
2022/11/26 14:05:10;;;;;;;54.10;27.42;;;;;;;;;;5112701;28;20423;-75
2022/11/26 14:08:16;;;;;;;58.65;29.00;;;;;;;;;;5101142;28;20023;-77
2022/11/26 14:11:02;;;;;;;59.10;29.23;;;;;;;;;;5115046;28;20111;-77
2022/11/26 14:14:08;;;;;;;55.97;27.98;;;;;;;;;;5100980;28;20066;-76
2022/11/26 14:17:00;;;;;;;52.22;27.10;;;;;;;;;;5113797;28;20022;-77
2022/11/26 14:19:50;;;;;;;56.67;28.73;;;;;;;;;;5101287;28;20015;-76
2022/11/26 14:22:36;;;;;;;54.13;27.27;;;;;;;;;;5100804;28;20019;-75
2022/11/26 14:25:37;;;;;;;54.65;28.33;;;;;;;;;;5116361;28;20028;-76
2022/11/26 14:28:23;;;;;;;58.55;30.10;;;;;;;;;;5114511;28;20110;-76
2022/11/26 14:31:19;;;;;;;59.08;28.88;;;;;;;;;;5113419;28;20034;-76
2022/11/26 14:34:14;;;;;;;57.67;29.10;;;;;;;;;;5115123;28;20023;-76
2022/11/26 14:37:01;;;;;;;60.88;30.25;;;;;;;;;;5114168;28;20055;-77
2022/11/26 14:40:03;;;;;;;65.63;30.95;;;;;;;;;;5101212;28;20027;-76
2022/11/26 14:43:04;;;;;;;59.15;28.98;;;;;;;;;;5114402;28;20026;-76
2022/11/26 14:45:58;;;;;;;61.05;30.75;;;;;;;;;;5115037;28;20053;-76
2022/11/26 14:48:48;;;;;;;56.72;29.30;;;;;;;;;;5117407;28;20020;-75
2022/11/26 14:51:34;;;;;;;59.83;29.38;;;;;;;;;;5116204;28;20030;-76
2022/11/26 14:54:33;;;;;;;57.70;29.65;;;;;;;;;;5114698;28;20436;-76
2022/11/26 14:57:24;;;;;;;54.45;28.13;;;;;;;;;;5114695;28;20023;-76
2022/11/26 15:00:12;;;;;;;53.03;27.52;;;;;;;;;;5114670;28;20459;-75
2022/11/26 15:02:58;;;;;;;58.10;28.42;;;;;;;;;;5114161;28;20482;-75
2022/11/26 15:05:44;;;;;;;54.38;29.35;;;;;;;;;;5101128;28;20037;-76
2022/11/26 15:08:29;;;;;;;55.92;28.52;;;;;;;;;;5114146;28;20028;-76
2022/11/26 15:11:17;;;;;;;54.83;29.02;;;;;;;;;;5113661;28;20027;-75
2022/11/26 15:14:03;;;;;;;54.92;28.67;;;;;;;;;;5114393;28;20020;-76
2022/11/26 15:16:53;;;;;;;58.45;29.17;;;;;;;;;;5114484;28;20030;-77
2022/11/26 15:19:39;;;;;;;61.42;30.48;;;;;;;;;;5114647;28;20016;-77
2022/11/26 15:22:28;;;;;;;58.80;29.92;;;;;;;;;;5099895;28;20038;-77
2022/11/26 15:25:18;;;;;;;59.78;30.13;;;;;;;;;;5113841;28;20041;-76
2022/11/26 15:28:05;;;;;;;58.45;29.88;;;;;;;;;;5114753;28;20054;-76
2022/11/26 15:30:53;;;;;;;58.10;30.52;;;;;;;;;;5118449;28;20110;-77
2022/11/26 15:33:40;;;;;;;63.83;31.65;;;;;;;;;;5117286;28;20025;-76
2022/11/26 15:36:25;;;;;;;60.75;30.05;;;;;;;;;;5117079;28;20046;-75
2022/11/26 15:39:23;;;;;;;60.67;30.25;;;;;;;;;;5116694;28;20076;-76
2022/11/26 15:42:23;;;;;;;65.20;33.45;;;;;;;;;;5118055;28;20100;-76
2022/11/26 15:45:17;;;;;;;68.88;32.38;;;;;;;;;;5104139;28;20110;-76
2022/11/26 15:48:04;;;;;;;70.18;30.52;;;;;;;;;;5102772;28;20102;-75
2022/11/26 15:50:51;;;;;;;64.80;31.33;;;;;;;;;;5118504;28;20447;-75
2022/11/26 15:53:38;;;;;;;70.35;33.47;;;;;;;;;;5106242;28;20015;-77
2022/11/26 15:56:26;;;;;;;63.13;31.98;;;;;;;;;;5117854;28;20030;-74
2022/11/26 15:59:13;;;;;;;60.30;30.60;;;;;;;;;;5117907;28;20091;-76
2022/11/26 16:02:03;;;;;;;62.10;31.77;;;;;;;;;;5103600;28;20034;-76
2022/11/26 16:04:50;;;;;;;69.40;33.72;;;;;;;;;;5117279;28;20028;-75
2022/11/26 16:07:54;;;;;;;76.55;34.78;;;;;;;;;;5115394;28;20019;-76
2022/11/26 16:10:40;;;;;;;73.57;34.65;;;;;;;;;;5117223;28;20035;-76
2022/11/26 16:13:26;;;;;;;89.35;37.67;;;;;;;;;;5117935;28;20099;-76
2022/11/26 16:16:15;;;;;;;80.70;39.60;;;;;;;;;;5102357;28;20173;-75
2022/11/26 16:19:03;;;;;;;67.55;34.90;;;;;;;;;;5101885;28;20026;-76